sensor_id;sensor_type;location;lat;lon;timestamp;P1;durP1;ratioP1;P2;durP2;ratioP2
46282;SDS011;32017;43.700;11.820;2023-05-08T00:01:10;1.42;;;1.38;;
46282;SDS011;32017;43.700;11.820;2023-05-08T00:03:30;1.95;;;1.85;;
46282;SDS011;32017;43.700;11.820;2023-05-08T00:05:50;1.77;;;1.70;;
46282;SDS011;32017;43.700;11.820;2023-05-08T00:08:10;1.30;;;1.30;;
46282;SDS011;32017;43.700;11.820;2023-05-08T00:10:31;1.23;;;1.23;;
46282;SDS011;32017;43.700;11.820;2023-05-08T00:12:51;1.60;;;1.50;;
46282;SDS011;32017;43.700;11.820;2023-05-08T00:15:11;1.60;;;1.60;;
46282;SDS011;32017;43.700;11.820;2023-05-08T00:17:31;1.25;;;1.25;;
46282;SDS011;32017;43.700;11.820;2023-05-08T00:19:52;1.85;;;1.85;;
46282;SDS011;32017;43.700;11.820;2023-05-08T00:22:12;1.50;;;1.50;;
46282;SDS011;32017;43.700;11.820;2023-05-08T00:24:32;1.73;;;1.20;;
46282;SDS011;32017;43.700;11.820;2023-05-08T00:26:53;1.58;;;1.50;;
46282;SDS011;32017;43.700;11.820;2023-05-08T00:29:13;1.48;;;1.42;;
46282;SDS011;32017;43.700;11.820;2023-05-08T00:31:34;1.88;;;1.83;;
46282;SDS011;32017;43.700;11.820;2023-05-08T00:33:54;2.33;;;2.22;;
46282;SDS011;32017;43.700;11.820;2023-05-08T00:36:14;1.63;;;1.63;;
46282;SDS011;32017;43.700;11.820;2023-05-08T00:38:35;1.83;;;1.83;;
46282;SDS011;32017;43.700;11.820;2023-05-08T00:40:55;1.80;;;1.70;;
46282;SDS011;32017;43.700;11.820;2023-05-08T00:43:16;1.73;;;1.65;;
46282;SDS011;32017;43.700;11.820;2023-05-08T00:45:38;2.38;;;1.75;;
46282;SDS011;32017;43.700;11.820;2023-05-08T00:47:59;1.77;;;1.67;;
46282;SDS011;32017;43.700;11.820;2023-05-08T00:50:19;1.48;;;1.48;;
46282;SDS011;32017;43.700;11.820;2023-05-08T00:52:39;1.38;;;1.38;;
46282;SDS011;32017;43.700;11.820;2023-05-08T00:55:00;1.42;;;1.42;;
46282;SDS011;32017;43.700;11.820;2023-05-08T00:57:21;1.50;;;1.50;;
46282;SDS011;32017;43.700;11.820;2023-05-08T00:59:41;1.80;;;1.80;;
46282;SDS011;32017;43.700;11.820;2023-05-08T01:02:03;2.05;;;1.95;;
46282;SDS011;32017;43.700;11.820;2023-05-08T01:04:24;1.50;;;1.50;;
46282;SDS011;32017;43.700;11.820;2023-05-08T01:06:45;2.58;;;1.58;;
46282;SDS011;32017;43.700;11.820;2023-05-08T01:09:06;1.95;;;1.95;;
46282;SDS011;32017;43.700;11.820;2023-05-08T01:11:33;1.73;;;1.73;;
46282;SDS011;32017;43.700;11.820;2023-05-08T01:21:37;3.17;;;1.67;;
46282;SDS011;32017;43.700;11.820;2023-05-08T01:26:55;1.30;;;1.30;;
46282;SDS011;32017;43.700;11.820;2023-05-08T01:34:23;1.25;;;1.25;;
46282;SDS011;32017;43.700;11.820;2023-05-08T01:39:09;1.80;;;1.75;;
46282;SDS011;32017;43.700;11.820;2023-05-08T01:41:31;1.63;;;1.63;;
46282;SDS011;32017;43.700;11.820;2023-05-08T01:44:09;1.48;;;1.38;;
46282;SDS011;32017;43.700;11.820;2023-05-08T01:46:31;1.40;;;1.40;;
46282;SDS011;32017;43.700;11.820;2023-05-08T01:48:58;1.35;;;1.35;;
46282;SDS011;32017;43.700;11.820;2023-05-08T01:51:20;1.58;;;1.58;;
46282;SDS011;32017;43.700;11.820;2023-05-08T01:53:42;1.30;;;1.30;;
46282;SDS011;32017;43.700;11.820;2023-05-08T01:56:04;2.15;;;1.40;;
46282;SDS011;32017;43.700;11.820;2023-05-08T01:58:27;2.38;;;1.45;;
46282;SDS011;32017;43.700;11.820;2023-05-08T02:00:48;1.42;;;1.35;;
46282;SDS011;32017;43.700;11.820;2023-05-08T02:03:08;1.90;;;1.80;;
46282;SDS011;32017;43.700;11.820;2023-05-08T02:05:29;1.30;;;1.30;;
46282;SDS011;32017;43.700;11.820;2023-05-08T02:07:50;1.50;;;1.50;;
46282;SDS011;32017;43.700;11.820;2023-05-08T02:10:11;1.55;;;1.55;;
46282;SDS011;32017;43.700;11.820;2023-05-08T02:12:32;1.38;;;1.38;;
46282;SDS011;32017;43.700;11.820;2023-05-08T02:14:53;1.25;;;1.25;;
46282;SDS011;32017;43.700;11.820;2023-05-08T02:17:15;1.48;;;1.48;;
46282;SDS011;32017;43.700;11.820;2023-05-08T02:19:36;1.40;;;1.40;;
46282;SDS011;32017;43.700;11.820;2023-05-08T02:21:58;1.33;;;1.33;;
46282;SDS011;32017;43.700;11.820;2023-05-08T02:24:20;1.10;;;1.10;;
46282;SDS011;32017;43.700;11.820;2023-05-08T02:26:41;1.60;;;1.50;;
46282;SDS011;32017;43.700;11.820;2023-05-08T02:29:02;1.70;;;1.58;;
46282;SDS011;32017;43.700;11.820;2023-05-08T02:31:22;1.40;;;1.40;;
46282;SDS011;32017;43.700;11.820;2023-05-08T02:33:43;1.25;;;1.25;;
46282;SDS011;32017;43.700;11.820;2023-05-08T02:36:04;1.95;;;1.85;;
46282;SDS011;32017;43.700;11.820;2023-05-08T02:38:25;1.95;;;1.77;;
46282;SDS011;32017;43.700;11.820;2023-05-08T02:40:50;1.38;;;1.38;;
46282;SDS011;32017;43.700;11.820;2023-05-08T02:43:12;4.80;;;1.30;;
46282;SDS011;32017;43.700;11.820;2023-05-08T02:45:35;3.33;;;1.55;;
46282;SDS011;32017;43.700;11.820;2023-05-08T02:50:38;1.23;;;1.23;;
46282;SDS011;32017;43.700;11.820;2023-05-08T02:53:03;7.88;;;1.75;;
46282;SDS011;32017;43.700;11.820;2023-05-08T02:57:49;1.60;;;1.50;;
46282;SDS011;32017;43.700;11.820;2023-05-08T03:02:39;2.25;;;1.80;;
46282;SDS011;32017;43.700;11.820;2023-05-08T03:05:34;2.10;;;2.03;;
46282;SDS011;32017;43.700;11.820;2023-05-08T03:07:53;1.40;;;1.40;;
46282;SDS011;32017;43.700;11.820;2023-05-08T03:10:16;1.48;;;1.48;;
46282;SDS011;32017;43.700;11.820;2023-05-08T03:12:39;1.60;;;1.50;;
46282;SDS011;32017;43.700;11.820;2023-05-08T03:17:25;1.70;;;1.70;;
46282;SDS011;32017;43.700;11.820;2023-05-08T03:19:48;2.30;;;2.10;;
46282;SDS011;32017;43.700;11.820;2023-05-08T03:22:10;1.98;;;1.90;;
46282;SDS011;32017;43.700;11.820;2023-05-08T03:24:36;1.73;;;1.73;;
46282;SDS011;32017;43.700;11.820;2023-05-08T03:26:57;1.73;;;1.70;;
46282;SDS011;32017;43.700;11.820;2023-05-08T03:29:18;1.52;;;1.38;;
46282;SDS011;32017;43.700;11.820;2023-05-08T03:31:39;1.52;;;1.52;;
46282;SDS011;32017;43.700;11.820;2023-05-08T03:34:00;1.65;;;1.65;;
46282;SDS011;32017;43.700;11.820;2023-05-08T03:36:21;1.73;;;1.73;;
46282;SDS011;32017;43.700;11.820;2023-05-08T03:38:43;1.83;;;1.83;;
46282;SDS011;32017;43.700;11.820;2023-05-08T03:41:03;1.85;;;1.58;;
46282;SDS011;32017;43.700;11.820;2023-05-08T03:43:23;1.77;;;1.77;;
46282;SDS011;32017;43.700;11.820;2023-05-08T03:45:44;1.90;;;1.80;;
46282;SDS011;32017;43.700;11.820;2023-05-08T03:48:05;1.70;;;1.70;;
46282;SDS011;32017;43.700;11.820;2023-05-08T03:50:26;1.75;;;1.75;;
46282;SDS011;32017;43.700;11.820;2023-05-08T03:52:46;2.05;;;1.83;;
46282;SDS011;32017;43.700;11.820;2023-05-08T03:55:06;1.88;;;1.77;;
46282;SDS011;32017;43.700;11.820;2023-05-08T03:57:29;1.60;;;1.50;;
46282;SDS011;32017;43.700;11.820;2023-05-08T04:00:02;1.63;;;1.52;;
46282;SDS011;32017;43.700;11.820;2023-05-08T04:02:27;1.73;;;1.73;;
46282;SDS011;32017;43.700;11.820;2023-05-08T04:04:50;1.95;;;1.92;;
46282;SDS011;32017;43.700;11.820;2023-05-08T04:09:54;1.60;;;1.60;;
46282;SDS011;32017;43.700;11.820;2023-05-08T04:12:19;2.15;;;2.05;;
46282;SDS011;32017;43.700;11.820;2023-05-08T04:14:43;1.70;;;1.60;;
46282;SDS011;32017;43.700;11.820;2023-05-08T04:17:05;2.35;;;2.25;;
46282;SDS011;32017;43.700;11.820;2023-05-08T04:19:27;1.98;;;1.88;;
46282;SDS011;32017;43.700;11.820;2023-05-08T04:21:48;1.92;;;1.83;;
46282;SDS011;32017;43.700;11.820;2023-05-08T04:24:11;1.65;;;1.65;;
46282;SDS011;32017;43.700;11.820;2023-05-08T04:26:32;1.80;;;1.80;;
46282;SDS011;32017;43.700;11.820;2023-05-08T04:28:52;2.17;;;2.17;;
46282;SDS011;32017;43.700;11.820;2023-05-08T04:31:14;1.67;;;1.58;;
46282;SDS011;32017;43.700;11.820;2023-05-08T04:33:35;1.92;;;1.50;;
46282;SDS011;32017;43.700;11.820;2023-05-08T04:35:56;1.42;;;1.42;;
46282;SDS011;32017;43.700;11.820;2023-05-08T04:38:16;2.00;;;2.00;;
46282;SDS011;32017;43.700;11.820;2023-05-08T04:40:37;1.90;;;1.77;;
46282;SDS011;32017;43.700;11.820;2023-05-08T04:42:57;2.55;;;2.45;;
46282;SDS011;32017;43.700;11.820;2023-05-08T04:45:17;2.47;;;2.17;;
46282;SDS011;32017;43.700;11.820;2023-05-08T04:47:37;2.33;;;2.22;;
46282;SDS011;32017;43.700;11.820;2023-05-08T04:49:58;2.28;;;2.28;;
46282;SDS011;32017;43.700;11.820;2023-05-08T04:52:21;2.05;;;1.98;;
46282;SDS011;32017;43.700;11.820;2023-05-08T04:54:41;2.30;;;2.30;;
46282;SDS011;32017;43.700;11.820;2023-05-08T04:57:02;2.50;;;2.50;;
46282;SDS011;32017;43.700;11.820;2023-05-08T04:59:22;2.42;;;2.33;;
46282;SDS011;32017;43.700;11.820;2023-05-08T05:01:45;2.55;;;2.45;;
46282;SDS011;32017;43.700;11.820;2023-05-08T05:04:06;3.15;;;2.92;;
46282;SDS011;32017;43.700;11.820;2023-05-08T05:06:26;2.55;;;2.45;;
46282;SDS011;32017;43.700;11.820;2023-05-08T05:08:46;2.65;;;2.50;;
46282;SDS011;32017;43.700;11.820;2023-05-08T05:11:07;1.80;;;1.70;;
46282;SDS011;32017;43.700;11.820;2023-05-08T05:13:27;1.77;;;1.77;;
46282;SDS011;32017;43.700;11.820;2023-05-08T05:15:47;2.25;;;1.88;;
46282;SDS011;32017;43.700;11.820;2023-05-08T05:18:09;1.57;;;1.57;;
46282;SDS011;32017;43.700;11.820;2023-05-08T05:20:29;1.80;;;1.70;;
46282;SDS011;32017;43.700;11.820;2023-05-08T05:22:49;2.13;;;2.13;;
46282;SDS011;32017;43.700;11.820;2023-05-08T05:25:10;1.60;;;1.50;;
46282;SDS011;32017;43.700;11.820;2023-05-08T05:27:30;2.15;;;2.03;;
46282;SDS011;32017;43.700;11.820;2023-05-08T05:29:53;1.85;;;1.83;;
46282;SDS011;32017;43.700;11.820;2023-05-08T05:32:13;2.17;;;2.05;;
46282;SDS011;32017;43.700;11.820;2023-05-08T05:34:34;2.45;;;1.80;;
46282;SDS011;32017;43.700;11.820;2023-05-08T05:36:54;1.60;;;1.60;;
46282;SDS011;32017;43.700;11.820;2023-05-08T05:39:14;1.88;;;1.88;;
46282;SDS011;32017;43.700;11.820;2023-05-08T05:41:35;2.28;;;2.28;;
46282;SDS011;32017;43.700;11.820;2023-05-08T05:43:55;1.80;;;1.70;;
46282;SDS011;32017;43.700;11.820;2023-05-08T05:46:15;2.53;;;2.33;;
46282;SDS011;32017;43.700;11.820;2023-05-08T05:48:36;2.25;;;2.00;;
46282;SDS011;32017;43.700;11.820;2023-05-08T05:50:56;2.13;;;2.13;;
46282;SDS011;32017;43.700;11.820;2023-05-08T05:53:17;2.20;;;2.20;;
46282;SDS011;32017;43.700;11.820;2023-05-08T05:55:37;2.50;;;2.50;;
46282;SDS011;32017;43.700;11.820;2023-05-08T05:57:57;2.60;;;2.40;;
46282;SDS011;32017;43.700;11.820;2023-05-08T06:00:18;2.30;;;2.03;;
46282;SDS011;32017;43.700;11.820;2023-05-08T06:02:39;2.28;;;2.22;;
46282;SDS011;32017;43.700;11.820;2023-05-08T06:05:03;2.10;;;2.10;;
46282;SDS011;32017;43.700;11.820;2023-05-08T06:07:23;2.45;;;2.30;;
46282;SDS011;32017;43.700;11.820;2023-05-08T06:09:43;1.42;;;1.42;;
46282;SDS011;32017;43.700;11.820;2023-05-08T06:12:04;2.10;;;2.00;;
46282;SDS011;32017;43.700;11.820;2023-05-08T06:14:24;2.15;;;2.05;;
46282;SDS011;32017;43.700;11.820;2023-05-08T06:16:44;2.95;;;2.75;;
46282;SDS011;32017;43.700;11.820;2023-05-08T06:19:06;2.50;;;2.25;;
46282;SDS011;32017;43.700;11.820;2023-05-08T06:21:26;2.28;;;2.15;;
46282;SDS011;32017;43.700;11.820;2023-05-08T06:23:46;1.98;;;1.90;;
46282;SDS011;32017;43.700;11.820;2023-05-08T06:26:07;1.80;;;1.80;;
46282;SDS011;32017;43.700;11.820;2023-05-08T06:28:27;2.03;;;1.90;;
46282;SDS011;32017;43.700;11.820;2023-05-08T06:30:47;2.72;;;2.53;;
46282;SDS011;32017;43.700;11.820;2023-05-08T06:33:08;1.88;;;1.77;;
46282;SDS011;32017;43.700;11.820;2023-05-08T06:35:29;2.00;;;1.77;;
46282;SDS011;32017;43.700;11.820;2023-05-08T06:37:49;1.50;;;1.50;;
46282;SDS011;32017;43.700;11.820;2023-05-08T06:40:09;1.67;;;1.67;;
46282;SDS011;32017;43.700;11.820;2023-05-08T06:42:31;1.70;;;1.70;;
46282;SDS011;32017;43.700;11.820;2023-05-08T06:44:51;2.17;;;2.08;;
46282;SDS011;32017;43.700;11.820;2023-05-08T06:47:11;1.70;;;1.60;;
46282;SDS011;32017;43.700;11.820;2023-05-08T06:49:32;1.33;;;1.33;;
46282;SDS011;32017;43.700;11.820;2023-05-08T06:51:52;1.20;;;1.20;;
46282;SDS011;32017;43.700;11.820;2023-05-08T06:54:16;1.20;;;1.20;;
46282;SDS011;32017;43.700;11.820;2023-05-08T06:56:37;1.20;;;1.20;;
46282;SDS011;32017;43.700;11.820;2023-05-08T06:58:57;1.50;;;1.50;;
46282;SDS011;32017;43.700;11.820;2023-05-08T07:01:27;4.07;;;1.40;;
46282;SDS011;32017;43.700;11.820;2023-05-08T07:03:47;1.30;;;1.30;;
46282;SDS011;32017;43.700;11.820;2023-05-08T07:06:08;1.40;;;1.40;;
46282;SDS011;32017;43.700;11.820;2023-05-08T07:08:28;1.73;;;1.27;;
46282;SDS011;32017;43.700;11.820;2023-05-08T07:10:50;1.30;;;1.30;;
46282;SDS011;32017;43.700;11.820;2023-05-08T07:13:11;3.03;;;1.60;;
46282;SDS011;32017;43.700;11.820;2023-05-08T07:15:31;1.10;;;1.10;;
46282;SDS011;32017;43.700;11.820;2023-05-08T07:17:52;1.63;;;1.20;;
46282;SDS011;32017;43.700;11.820;2023-05-08T07:20:12;1.23;;;1.20;;
46282;SDS011;32017;43.700;11.820;2023-05-08T07:22:32;1.10;;;1.10;;
46282;SDS011;32017;43.700;11.820;2023-05-08T07:24:52;1.40;;;1.27;;
46282;SDS011;32017;43.700;11.820;2023-05-08T07:27:13;1.20;;;1.20;;
46282;SDS011;32017;43.700;11.820;2023-05-08T07:29:33;2.03;;;0.90;;
46282;SDS011;32017;43.700;11.820;2023-05-08T07:31:59;1.10;;;1.00;;
46282;SDS011;32017;43.700;11.820;2023-05-08T07:34:20;1.35;;;1.15;;
46282;SDS011;32017;43.700;11.820;2023-05-08T07:36:40;1.38;;;1.38;;
46282;SDS011;32017;43.700;11.820;2023-05-08T07:39:00;1.33;;;1.10;;
46282;SDS011;32017;43.700;11.820;2023-05-08T07:41:20;2.15;;;1.10;;
46282;SDS011;32017;43.700;11.820;2023-05-08T07:43:41;1.95;;;1.13;;
46282;SDS011;32017;43.700;11.820;2023-05-08T07:46:03;3.42;;;1.10;;
46282;SDS011;32017;43.700;11.820;2023-05-08T07:48:24;1.20;;;1.20;;
46282;SDS011;32017;43.700;11.820;2023-05-08T07:50:44;1.00;;;1.00;;
46282;SDS011;32017;43.700;11.820;2023-05-08T07:53:05;2.47;;;0.95;;
46282;SDS011;32017;43.700;11.820;2023-05-08T07:55:25;0.98;;;0.95;;
46282;SDS011;32017;43.700;11.820;2023-05-08T07:57:45;1.02;;;0.90;;
46282;SDS011;32017;43.700;11.820;2023-05-08T08:00:06;1.20;;;1.10;;
46282;SDS011;32017;43.700;11.820;2023-05-08T08:02:26;1.27;;;0.90;;
46282;SDS011;32017;43.700;11.820;2023-05-08T08:04:47;1.02;;;1.00;;
46282;SDS011;32017;43.700;11.820;2023-05-08T08:07:07;1.50;;;1.00;;
46282;SDS011;32017;43.700;11.820;2023-05-08T08:09:27;0.98;;;0.98;;
46282;SDS011;32017;43.700;11.820;2023-05-08T08:11:48;2.88;;;0.93;;
46282;SDS011;32017;43.700;11.820;2023-05-08T08:14:08;1.85;;;1.00;;
46282;SDS011;32017;43.700;11.820;2023-05-08T08:16:28;1.05;;;0.95;;
46282;SDS011;32017;43.700;11.820;2023-05-08T08:18:51;0.90;;;0.90;;
46282;SDS011;32017;43.700;11.820;2023-05-08T08:21:12;0.90;;;0.90;;
46282;SDS011;32017;43.700;11.820;2023-05-08T08:23:32;0.90;;;0.90;;
46282;SDS011;32017;43.700;11.820;2023-05-08T08:25:53;1.33;;;1.23;;
46282;SDS011;32017;43.700;11.820;2023-05-08T08:28:13;1.48;;;0.80;;
46282;SDS011;32017;43.700;11.820;2023-05-08T08:30:33;0.77;;;0.77;;
46282;SDS011;32017;43.700;11.820;2023-05-08T08:32:53;1.00;;;0.90;;
46282;SDS011;32017;43.700;11.820;2023-05-08T08:35:13;0.80;;;0.80;;
46282;SDS011;32017;43.700;11.820;2023-05-08T08:37:36;0.80;;;0.80;;
46282;SDS011;32017;43.700;11.820;2023-05-08T08:39:56;1.30;;;0.80;;
46282;SDS011;32017;43.700;11.820;2023-05-08T08:42:16;0.80;;;0.80;;
46282;SDS011;32017;43.700;11.820;2023-05-08T08:44:36;1.40;;;0.70;;
46282;SDS011;32017;43.700;11.820;2023-05-08T08:46:59;1.65;;;0.80;;
46282;SDS011;32017;43.700;11.820;2023-05-08T08:49:24;0.80;;;0.80;;
46282;SDS011;32017;43.700;11.820;2023-05-08T08:51:48;0.80;;;0.80;;
46282;SDS011;32017;43.700;11.820;2023-05-08T08:54:11;1.27;;;0.80;;
46282;SDS011;32017;43.700;11.820;2023-05-08T08:56:32;1.00;;;0.70;;
46282;SDS011;32017;43.700;11.820;2023-05-08T08:58:54;0.80;;;0.80;;
46282;SDS011;32017;43.700;11.820;2023-05-08T09:01:17;0.75;;;0.75;;
46282;SDS011;32017;43.700;11.820;2023-05-08T09:03:38;2.95;;;0.80;;
46282;SDS011;32017;43.700;11.820;2023-05-08T09:05:59;1.20;;;0.90;;
46282;SDS011;32017;43.700;11.820;2023-05-08T09:08:22;0.70;;;0.70;;
46282;SDS011;32017;43.700;11.820;2023-05-08T09:10:43;1.88;;;1.00;;
46282;SDS011;32017;43.700;11.820;2023-05-08T09:13:03;0.75;;;0.75;;
46282;SDS011;32017;43.700;11.820;2023-05-08T09:15:23;1.80;;;0.70;;
46282;SDS011;32017;43.700;11.820;2023-05-08T09:17:43;1.02;;;0.70;;
46282;SDS011;32017;43.700;11.820;2023-05-08T09:20:04;0.85;;;0.80;;
46282;SDS011;32017;43.700;11.820;2023-05-08T09:22:25;2.15;;;0.88;;
46282;SDS011;32017;43.700;11.820;2023-05-08T09:24:55;1.55;;;0.70;;
46282;SDS011;32017;43.700;11.820;2023-05-08T09:27:19;2.05;;;0.80;;
46282;SDS011;32017;43.700;11.820;2023-05-08T09:29:40;2.13;;;0.90;;
46282;SDS011;32017;43.700;11.820;2023-05-08T09:32:17;2.30;;;0.82;;
46282;SDS011;32017;43.700;11.820;2023-05-08T09:34:37;2.78;;;0.90;;
46282;SDS011;32017;43.700;11.820;2023-05-08T09:39:24;0.90;;;0.90;;
46282;SDS011;32017;43.700;11.820;2023-05-08T09:42:03;0.85;;;0.85;;
46282;SDS011;32017;43.700;11.820;2023-05-08T09:44:24;2.08;;;1.35;;
46282;SDS011;32017;43.700;11.820;2023-05-08T09:46:44;1.10;;;0.98;;
46282;SDS011;32017;43.700;11.820;2023-05-08T09:49:13;1.30;;;1.20;;
46282;SDS011;32017;43.700;11.820;2023-05-08T09:51:35;1.00;;;1.00;;
46282;SDS011;32017;43.700;11.820;2023-05-08T09:53:58;0.80;;;0.80;;
46282;SDS011;32017;43.700;11.820;2023-05-08T09:56:29;1.00;;;1.00;;
46282;SDS011;32017;43.700;11.820;2023-05-08T09:58:50;1.30;;;1.30;;
46282;SDS011;32017;43.700;11.820;2023-05-08T10:01:26;1.13;;;1.02;;
46282;SDS011;32017;43.700;11.820;2023-05-08T10:03:49;1.30;;;1.13;;
46282;SDS011;32017;43.700;11.820;2023-05-08T10:06:13;1.35;;;1.25;;
46282;SDS011;32017;43.700;11.820;2023-05-08T10:08:33;1.13;;;1.02;;
46282;SDS011;32017;43.700;11.820;2023-05-08T10:10:53;1.20;;;1.20;;
46282;SDS011;32017;43.700;11.820;2023-05-08T10:13:31;1.05;;;1.05;;
46282;SDS011;32017;43.700;11.820;2023-05-08T10:15:52;1.15;;;1.15;;
46282;SDS011;32017;43.700;11.820;2023-05-08T10:18:13;1.55;;;1.40;;
46282;SDS011;32017;43.700;11.820;2023-05-08T10:20:38;1.10;;;1.10;;
46282;SDS011;32017;43.700;11.820;2023-05-08T10:22:59;1.30;;;1.30;;
46282;SDS011;32017;43.700;11.820;2023-05-08T10:25:20;1.20;;;1.20;;
46282;SDS011;32017;43.700;11.820;2023-05-08T10:27:46;1.20;;;1.20;;
46282;SDS011;32017;43.700;11.820;2023-05-08T10:30:07;1.20;;;1.20;;
46282;SDS011;32017;43.700;11.820;2023-05-08T10:32:30;2.13;;;1.50;;
46282;SDS011;32017;43.700;11.820;2023-05-08T10:34:52;1.88;;;1.42;;
46282;SDS011;32017;43.700;11.820;2023-05-08T10:37:12;1.40;;;1.40;;
46282;SDS011;32017;43.700;11.820;2023-05-08T10:39:32;1.83;;;1.73;;
46282;SDS011;32017;43.700;11.820;2023-05-08T10:41:54;1.60;;;1.60;;
46282;SDS011;32017;43.700;11.820;2023-05-08T10:44:14;1.35;;;1.35;;
46282;SDS011;32017;43.700;11.820;2023-05-08T10:49:19;1.45;;;1.35;;
46282;SDS011;32017;43.700;11.820;2023-05-08T10:52:06;1.52;;;1.52;;
46282;SDS011;32017;43.700;11.820;2023-05-08T10:54:47;1.65;;;1.65;;
46282;SDS011;32017;43.700;11.820;2023-05-08T10:57:10;1.70;;;1.70;;
46282;SDS011;32017;43.700;11.820;2023-05-08T10:59:30;1.63;;;1.63;;
46282;SDS011;32017;43.700;11.820;2023-05-08T11:01:54;1.35;;;1.35;;
46282;SDS011;32017;43.700;11.820;2023-05-08T11:04:22;1.48;;;1.40;;
46282;SDS011;32017;43.700;11.820;2023-05-08T11:06:43;1.40;;;1.40;;
46282;SDS011;32017;43.700;11.820;2023-05-08T11:09:04;1.60;;;1.50;;
46282;SDS011;32017;43.700;11.820;2023-05-08T11:13:52;2.65;;;2.33;;
46282;SDS011;32017;43.700;11.820;2023-05-08T11:16:13;1.63;;;1.60;;
46282;SDS011;32017;43.700;11.820;2023-05-08T11:18:34;2.17;;;1.60;;
46282;SDS011;32017;43.700;11.820;2023-05-08T11:21:13;2.33;;;2.22;;
46282;SDS011;32017;43.700;11.820;2023-05-08T11:23:34;1.70;;;1.70;;
46282;SDS011;32017;43.700;11.820;2023-05-08T11:28:25;1.30;;;1.30;;
46282;SDS011;32017;43.700;11.820;2023-05-08T11:30:45;1.58;;;1.48;;
46282;SDS011;32017;43.700;11.820;2023-05-08T11:40:44;1.35;;;1.35;;
46282;SDS011;32017;43.700;11.820;2023-05-08T11:43:17;1.63;;;1.42;;
46282;SDS011;32017;43.700;11.820;2023-05-08T11:45:38;1.40;;;1.35;;
46282;SDS011;32017;43.700;11.820;2023-05-08T11:47:59;1.20;;;1.20;;
46282;SDS011;32017;43.700;11.820;2023-05-08T11:50:19;1.27;;;1.27;;
46282;SDS011;32017;43.700;11.820;2023-05-08T11:52:40;1.33;;;1.23;;
46282;SDS011;32017;43.700;11.820;2023-05-08T11:55:05;1.53;;;1.20;;
46282;SDS011;32017;43.700;11.820;2023-05-08T11:57:26;1.77;;;1.10;;
46282;SDS011;32017;43.700;11.820;2023-05-08T11:59:49;1.25;;;1.25;;
46282;SDS011;32017;43.700;11.820;2023-05-08T12:02:10;1.23;;;1.13;;
46282;SDS011;32017;43.700;11.820;2023-05-08T12:04:30;1.52;;;1.52;;
46282;SDS011;32017;43.700;11.820;2023-05-08T12:06:51;2.00;;;1.50;;
46282;SDS011;32017;43.700;11.820;2023-05-08T12:09:17;1.33;;;1.33;;
46282;SDS011;32017;43.700;11.820;2023-05-08T12:11:38;1.67;;;1.58;;
46282;SDS011;32017;43.700;11.820;2023-05-08T12:14:01;1.42;;;1.20;;
46282;SDS011;32017;43.700;11.820;2023-05-08T12:16:22;2.95;;;1.55;;
46282;SDS011;32017;43.700;11.820;2023-05-08T12:18:44;1.10;;;1.10;;
46282;SDS011;32017;43.700;11.820;2023-05-08T12:21:04;1.55;;;1.45;;
46282;SDS011;32017;43.700;11.820;2023-05-08T12:23:25;1.75;;;1.65;;
46282;SDS011;32017;43.700;11.820;2023-05-08T12:25:45;1.92;;;1.55;;
46282;SDS011;32017;43.700;11.820;2023-05-08T12:28:05;2.40;;;1.20;;
46282;SDS011;32017;43.700;11.820;2023-05-08T12:30:25;1.60;;;1.10;;
46282;SDS011;32017;43.700;11.820;2023-05-08T12:32:45;1.48;;;1.45;;
46282;SDS011;32017;43.700;11.820;2023-05-08T12:35:06;1.10;;;1.10;;
46282;SDS011;32017;43.700;11.820;2023-05-08T12:37:27;1.52;;;1.42;;
46282;SDS011;32017;43.700;11.820;2023-05-08T12:39:48;1.40;;;1.40;;
46282;SDS011;32017;43.700;11.820;2023-05-08T12:42:08;1.33;;;1.23;;
46282;SDS011;32017;43.700;11.820;2023-05-08T12:44:28;1.52;;;1.10;;
46282;SDS011;32017;43.700;11.820;2023-05-08T12:46:49;1.50;;;1.40;;
46282;SDS011;32017;43.700;11.820;2023-05-08T12:49:10;1.50;;;1.30;;
46282;SDS011;32017;43.700;11.820;2023-05-08T12:51:31;1.00;;;1.00;;
46282;SDS011;32017;43.700;11.820;2023-05-08T12:53:51;1.10;;;1.10;;
46282;SDS011;32017;43.700;11.820;2023-05-08T12:56:11;1.00;;;1.00;;
46282;SDS011;32017;43.700;11.820;2023-05-08T12:58:34;2.45;;;1.17;;
46282;SDS011;32017;43.700;11.820;2023-05-08T13:01:02;6.00;;;1.10;;
46282;SDS011;32017;43.700;11.820;2023-05-08T13:03:24;1.65;;;1.05;;
46282;SDS011;32017;43.700;11.820;2023-05-08T13:05:45;2.60;;;1.02;;
46282;SDS011;32017;43.700;11.820;2023-05-08T13:08:06;1.00;;;1.00;;
46282;SDS011;32017;43.700;11.820;2023-05-08T13:10:46;0.95;;;0.95;;
46282;SDS011;32017;43.700;11.820;2023-05-08T13:13:06;2.28;;;1.00;;
46282;SDS011;32017;43.700;11.820;2023-05-08T13:15:26;0.90;;;0.90;;
46282;SDS011;32017;43.700;11.820;2023-05-08T13:17:47;1.00;;;1.00;;
46282;SDS011;32017;43.700;11.820;2023-05-08T13:20:07;1.27;;;1.20;;
46282;SDS011;32017;43.700;11.820;2023-05-08T13:22:28;1.40;;;1.40;;
46282;SDS011;32017;43.700;11.820;2023-05-08T13:24:49;1.10;;;1.10;;
46282;SDS011;32017;43.700;11.820;2023-05-08T13:27:09;2.10;;;1.00;;
46282;SDS011;32017;43.700;11.820;2023-05-08T13:29:29;1.17;;;1.08;;
46282;SDS011;32017;43.700;11.820;2023-05-08T13:31:49;1.20;;;1.20;;
46282;SDS011;32017;43.700;11.820;2023-05-08T13:34:09;2.25;;;1.10;;
46282;SDS011;32017;43.700;11.820;2023-05-08T13:36:29;1.88;;;1.17;;
46282;SDS011;32017;43.700;11.820;2023-05-08T13:38:50;1.33;;;1.33;;
46282;SDS011;32017;43.700;11.820;2023-05-08T13:41:12;1.40;;;1.40;;
46282;SDS011;32017;43.700;11.820;2023-05-08T13:43:33;1.20;;;1.20;;
46282;SDS011;32017;43.700;11.820;2023-05-08T13:45:55;1.70;;;1.20;;
46282;SDS011;32017;43.700;11.820;2023-05-08T13:48:15;2.35;;;1.20;;
46282;SDS011;32017;43.700;11.820;2023-05-08T13:50:35;1.35;;;1.35;;
46282;SDS011;32017;43.700;11.820;2023-05-08T13:52:55;1.80;;;1.67;;
46282;SDS011;32017;43.700;11.820;2023-05-08T13:55:15;1.13;;;1.13;;
46282;SDS011;32017;43.700;11.820;2023-05-08T13:57:39;1.20;;;1.20;;
46282;SDS011;32017;43.700;11.820;2023-05-08T13:59:59;1.23;;;1.23;;
46282;SDS011;32017;43.700;11.820;2023-05-08T14:02:19;2.35;;;1.60;;
46282;SDS011;32017;43.700;11.820;2023-05-08T14:04:40;2.53;;;1.70;;
46282;SDS011;32017;43.700;11.820;2023-05-08T14:07:00;2.45;;;1.45;;
46282;SDS011;32017;43.700;11.820;2023-05-08T14:09:21;1.25;;;1.25;;
46282;SDS011;32017;43.700;11.820;2023-05-08T14:11:41;1.83;;;1.75;;
46282;SDS011;32017;43.700;11.820;2023-05-08T14:14:01;2.55;;;1.40;;
46282;SDS011;32017;43.700;11.820;2023-05-08T14:16:22;1.25;;;1.25;;
46282;SDS011;32017;43.700;11.820;2023-05-08T14:18:42;2.00;;;1.90;;
46282;SDS011;32017;43.700;11.820;2023-05-08T14:21:02;1.60;;;1.60;;
46282;SDS011;32017;43.700;11.820;2023-05-08T14:23:23;2.13;;;2.03;;
46282;SDS011;32017;43.700;11.820;2023-05-08T14:25:44;1.60;;;1.60;;
46282;SDS011;32017;43.700;11.820;2023-05-08T14:28:04;1.50;;;1.50;;
46282;SDS011;32017;43.700;11.820;2023-05-08T14:30:24;2.88;;;2.70;;
46282;SDS011;32017;43.700;11.820;2023-05-08T14:32:44;2.15;;;2.15;;
46282;SDS011;32017;43.700;11.820;2023-05-08T14:35:05;2.05;;;1.77;;
46282;SDS011;32017;43.700;11.820;2023-05-08T14:39:49;2.03;;;1.98;;
46282;SDS011;32017;43.700;11.820;2023-05-08T14:42:12;3.08;;;2.97;;
46282;SDS011;32017;43.700;11.820;2023-05-08T14:44:42;1.63;;;1.55;;
46282;SDS011;32017;43.700;11.820;2023-05-08T14:47:02;2.10;;;2.00;;
46282;SDS011;32017;43.700;11.820;2023-05-08T14:49:23;1.40;;;1.30;;
46282;SDS011;32017;43.700;11.820;2023-05-08T14:51:56;1.65;;;1.60;;